sensor_id;sensor_type;location;lat;lon;timestamp;temperature;humidity
3678;DHT22;1855;50.934;6.958;2022-10-26T00:02:10;12.70;92.40
3678;DHT22;1855;50.934;6.958;2022-10-26T00:04:37;12.70;92.50
3678;DHT22;1855;50.934;6.958;2022-10-26T00:07:03;12.70;92.30
3678;DHT22;1855;50.934;6.958;2022-10-26T00:09:30;12.70;92.20
3678;DHT22;1855;50.934;6.958;2022-10-26T00:11:57;12.70;92.20
3678;DHT22;1855;50.934;6.958;2022-10-26T00:14:24;12.70;92.20
3678;DHT22;1855;50.934;6.958;2022-10-26T00:16:51;12.70;92.00
3678;DHT22;1855;50.934;6.958;2022-10-26T00:19:19;12.70;92.10
3678;DHT22;1855;50.934;6.958;2022-10-26T00:21:46;12.80;92.10
3678;DHT22;1855;50.934;6.958;2022-10-26T00:24:13;12.70;92.10
3678;DHT22;1855;50.934;6.958;2022-10-26T00:26:40;12.80;92.00
3678;DHT22;1855;50.934;6.958;2022-10-26T00:29:07;12.80;92.00
3678;DHT22;1855;50.934;6.958;2022-10-26T00:31:35;12.80;91.90
3678;DHT22;1855;50.934;6.958;2022-10-26T00:34:02;12.80;91.80
3678;DHT22;1855;50.934;6.958;2022-10-26T00:36:30;12.80;91.90
3678;DHT22;1855;50.934;6.958;2022-10-26T00:38:57;12.80;91.80
3678;DHT22;1855;50.934;6.958;2022-10-26T00:41:27;12.80;91.90
3678;DHT22;1855;50.934;6.958;2022-10-26T00:43:54;12.80;91.80
3678;DHT22;1855;50.934;6.958;2022-10-26T00:46:24;12.80;91.70
3678;DHT22;1855;50.934;6.958;2022-10-26T00:48:55;12.80;91.60
3678;DHT22;1855;50.934;6.958;2022-10-26T00:51:27;12.80;91.70
3678;DHT22;1855;50.934;6.958;2022-10-26T00:53:59;12.80;91.70
3678;DHT22;1855;50.934;6.958;2022-10-26T00:56:26;12.80;91.70
3678;DHT22;1855;50.934;6.958;2022-10-26T00:58:54;12.90;91.70
3678;DHT22;1855;50.934;6.958;2022-10-26T01:01:21;12.80;91.80
3678;DHT22;1855;50.934;6.958;2022-10-26T01:03:48;12.80;91.80
3678;DHT22;1855;50.934;6.958;2022-10-26T01:06:15;12.80;91.90
3678;DHT22;1855;50.934;6.958;2022-10-26T01:08:42;12.80;92.00
3678;DHT22;1855;50.934;6.958;2022-10-26T01:11:11;12.90;91.90
3678;DHT22;1855;50.934;6.958;2022-10-26T01:13:38;12.90;91.90
3678;DHT22;1855;50.934;6.958;2022-10-26T01:19:36;12.90;91.80
3678;DHT22;1855;50.934;6.958;2022-10-26T01:22:13;12.90;91.90
3678;DHT22;1855;50.934;6.958;2022-10-26T01:24:57;12.90;91.80
3678;DHT22;1855;50.934;6.958;2022-10-26T01:27:31;12.90;91.90
3678;DHT22;1855;50.934;6.958;2022-10-26T01:30:16;12.90;91.90
3678;DHT22;1855;50.934;6.958;2022-10-26T01:32:46;12.90;91.90
3678;DHT22;1855;50.934;6.958;2022-10-26T01:35:20;12.90;91.90
3678;DHT22;1855;50.934;6.958;2022-10-26T01:37:55;13.00;91.90
3678;DHT22;1855;50.934;6.958;2022-10-26T01:40:26;13.00;91.80
3678;DHT22;1855;50.934;6.958;2022-10-26T01:42:56;13.00;91.80
3678;DHT22;1855;50.934;6.958;2022-10-26T01:45:27;13.00;91.90
3678;DHT22;1855;50.934;6.958;2022-10-26T01:47:56;13.00;91.80
3678;DHT22;1855;50.934;6.958;2022-10-26T01:50:23;13.00;91.80
3678;DHT22;1855;50.934;6.958;2022-10-26T01:52:51;13.00;91.80
3678;DHT22;1855;50.934;6.958;2022-10-26T01:55:39;13.10;91.70
3678;DHT22;1855;50.934;6.958;2022-10-26T02:01:05;13.10;91.90
3678;DHT22;1855;50.934;6.958;2022-10-26T02:03:40;13.10;92.00
3678;DHT22;1855;50.934;6.958;2022-10-26T02:06:15;13.10;92.10
3678;DHT22;1855;50.934;6.958;2022-10-26T02:09:09;13.10;91.90
3678;DHT22;1855;50.934;6.958;2022-10-26T02:11:40;13.10;91.80
3678;DHT22;1855;50.934;6.958;2022-10-26T02:14:13;13.10;91.80
3678;DHT22;1855;50.934;6.958;2022-10-26T02:16:51;13.10;91.80
3678;DHT22;1855;50.934;6.958;2022-10-26T02:19:31;13.10;91.90
3678;DHT22;1855;50.934;6.958;2022-10-26T02:22:03;13.10;91.90
3678;DHT22;1855;50.934;6.958;2022-10-26T02:24:32;13.10;91.90
3678;DHT22;1855;50.934;6.958;2022-10-26T02:27:01;13.10;91.90
3678;DHT22;1855;50.934;6.958;2022-10-26T02:29:30;13.10;91.80
3678;DHT22;1855;50.934;6.958;2022-10-26T02:32:01;13.10;91.90
3678;DHT22;1855;50.934;6.958;2022-10-26T02:34:29;13.20;92.10
3678;DHT22;1855;50.934;6.958;2022-10-26T02:37:00;13.10;91.90
3678;DHT22;1855;50.934;6.958;2022-10-26T02:39:31;13.20;92.10
3678;DHT22;1855;50.934;6.958;2022-10-26T02:42:00;13.20;92.00
3678;DHT22;1855;50.934;6.958;2022-10-26T02:44:30;13.20;92.00
3678;DHT22;1855;50.934;6.958;2022-10-26T02:47:00;13.20;92.00
3678;DHT22;1855;50.934;6.958;2022-10-26T02:49:27;13.20;91.90
3678;DHT22;1855;50.934;6.958;2022-10-26T02:52:01;13.20;92.10
3678;DHT22;1855;50.934;6.958;2022-10-26T02:54:33;13.20;92.10
3678;DHT22;1855;50.934;6.958;2022-10-26T02:57:06;13.20;92.10
3678;DHT22;1855;50.934;6.958;2022-10-26T02:59:36;13.20;92.30
3678;DHT22;1855;50.934;6.958;2022-10-26T03:02:07;13.20;92.30
3678;DHT22;1855;50.934;6.958;2022-10-26T03:04:34;13.20;92.70
3678;DHT22;1855;50.934;6.958;2022-10-26T03:07:01;13.20;92.40
3678;DHT22;1855;50.934;6.958;2022-10-26T03:09:28;13.30;92.30
3678;DHT22;1855;50.934;6.958;2022-10-26T03:11:55;13.30;92.30
3678;DHT22;1855;50.934;6.958;2022-10-26T03:14:21;13.30;92.40
3678;DHT22;1855;50.934;6.958;2022-10-26T03:16:48;13.30;92.20
3678;DHT22;1855;50.934;6.958;2022-10-26T03:19:16;13.30;92.10
3678;DHT22;1855;50.934;6.958;2022-10-26T03:21:43;13.30;92.10
3678;DHT22;1855;50.934;6.958;2022-10-26T03:24:10;13.40;92.10
3678;DHT22;1855;50.934;6.958;2022-10-26T03:26:37;13.40;92.10
3678;DHT22;1855;50.934;6.958;2022-10-26T03:29:04;13.40;92.10
3678;DHT22;1855;50.934;6.958;2022-10-26T03:31:30;13.40;92.10
3678;DHT22;1855;50.934;6.958;2022-10-26T03:33:57;13.40;92.10
3678;DHT22;1855;50.934;6.958;2022-10-26T03:36:25;13.40;92.10
3678;DHT22;1855;50.934;6.958;2022-10-26T03:38:52;13.40;92.00
3678;DHT22;1855;50.934;6.958;2022-10-26T03:41:19;13.50;91.90
3678;DHT22;1855;50.934;6.958;2022-10-26T03:43:45;13.50;91.90
3678;DHT22;1855;50.934;6.958;2022-10-26T03:46:13;13.50;91.80
3678;DHT22;1855;50.934;6.958;2022-10-26T03:48:40;13.60;91.80
3678;DHT22;1855;50.934;6.958;2022-10-26T03:51:07;13.60;91.90
3678;DHT22;1855;50.934;6.958;2022-10-26T03:53:35;13.60;91.90
3678;DHT22;1855;50.934;6.958;2022-10-26T03:56:02;13.60;91.80
3678;DHT22;1855;50.934;6.958;2022-10-26T03:58:28;13.70;91.70
3678;DHT22;1855;50.934;6.958;2022-10-26T04:00:55;13.70;91.60
3678;DHT22;1855;50.934;6.958;2022-10-26T04:03:22;13.80;91.70
3678;DHT22;1855;50.934;6.958;2022-10-26T04:05:49;13.70;91.70
3678;DHT22;1855;50.934;6.958;2022-10-26T04:08:15;13.70;91.80
3678;DHT22;1855;50.934;6.958;2022-10-26T04:10:44;13.80;91.80
3678;DHT22;1855;50.934;6.958;2022-10-26T04:13:11;13.80;91.90
3678;DHT22;1855;50.934;6.958;2022-10-26T04:15:38;13.80;92.00
3678;DHT22;1855;50.934;6.958;2022-10-26T04:18:05;13.80;92.10
3678;DHT22;1855;50.934;6.958;2022-10-26T04:20:32;13.80;92.20
3678;DHT22;1855;50.934;6.958;2022-10-26T04:23:02;13.80;92.30
3678;DHT22;1855;50.934;6.958;2022-10-26T04:25:30;13.80;92.40
3678;DHT22;1855;50.934;6.958;2022-10-26T04:27:58;13.80;92.50
3678;DHT22;1855;50.934;6.958;2022-10-26T04:30:25;13.80;92.50
3678;DHT22;1855;50.934;6.958;2022-10-26T04:32:52;13.90;92.60
3678;DHT22;1855;50.934;6.958;2022-10-26T04:35:19;13.80;92.60
3678;DHT22;1855;50.934;6.958;2022-10-26T04:37:45;13.90;92.60
3678;DHT22;1855;50.934;6.958;2022-10-26T04:40:12;13.90;92.80
3678;DHT22;1855;50.934;6.958;2022-10-26T04:42:40;13.80;92.80
3678;DHT22;1855;50.934;6.958;2022-10-26T04:45:09;13.80;93.00
3678;DHT22;1855;50.934;6.958;2022-10-26T04:47:36;13.90;93.00
3678;DHT22;1855;50.934;6.958;2022-10-26T04:50:04;13.90;93.00
3678;DHT22;1855;50.934;6.958;2022-10-26T04:52:31;13.90;93.10
3678;DHT22;1855;50.934;6.958;2022-10-26T04:54:58;13.90;93.10
3678;DHT22;1855;50.934;6.958;2022-10-26T04:57:24;13.90;93.20
3678;DHT22;1855;50.934;6.958;2022-10-26T04:59:51;13.90;93.10
3678;DHT22;1855;50.934;6.958;2022-10-26T05:02:19;13.90;93.00
3678;DHT22;1855;50.934;6.958;2022-10-26T05:04:47;13.90;93.00
3678;DHT22;1855;50.934;6.958;2022-10-26T05:07:13;13.90;93.10
3678;DHT22;1855;50.934;6.958;2022-10-26T05:09:40;14.00;93.10
3678;DHT22;1855;50.934;6.958;2022-10-26T05:12:07;14.00;93.10
3678;DHT22;1855;50.934;6.958;2022-10-26T05:14:34;14.00;93.20
3678;DHT22;1855;50.934;6.958;2022-10-26T05:17:00;14.00;93.30
3678;DHT22;1855;50.934;6.958;2022-10-26T05:19:28;14.00;93.20
3678;DHT22;1855;50.934;6.958;2022-10-26T05:21:55;14.00;93.30
3678;DHT22;1855;50.934;6.958;2022-10-26T05:24:22;14.10;93.30
3678;DHT22;1855;50.934;6.958;2022-10-26T05:26:49;14.00;93.30
3678;DHT22;1855;50.934;6.958;2022-10-26T05:29:15;14.00;93.40
3678;DHT22;1855;50.934;6.958;2022-10-26T05:31:42;14.00;93.40
3678;DHT22;1855;50.934;6.958;2022-10-26T05:34:09;14.00;93.60
3678;DHT22;1855;50.934;6.958;2022-10-26T05:36:37;14.00;93.50
3678;DHT22;1855;50.934;6.958;2022-10-26T05:39:04;14.00;93.60
3678;DHT22;1855;50.934;6.958;2022-10-26T05:41:30;14.00;93.60
3678;DHT22;1855;50.934;6.958;2022-10-26T05:43:57;14.10;93.40
3678;DHT22;1855;50.934;6.958;2022-10-26T05:46:24;14.10;93.20
3678;DHT22;1855;50.934;6.958;2022-10-26T05:48:51;14.10;93.20
3678;DHT22;1855;50.934;6.958;2022-10-26T05:51:17;14.10;93.60
3678;DHT22;1855;50.934;6.958;2022-10-26T05:53:45;14.00;93.10
3678;DHT22;1855;50.934;6.958;2022-10-26T05:56:18;14.00;93.20
3678;DHT22;1855;50.934;6.958;2022-10-26T05:58:46;14.10;93.00
3678;DHT22;1855;50.934;6.958;2022-10-26T06:01:22;14.10;92.80
3678;DHT22;1855;50.934;6.958;2022-10-26T06:04:01;14.20;92.80
3678;DHT22;1855;50.934;6.958;2022-10-26T06:06:36;14.20;92.80
3678;DHT22;1855;50.934;6.958;2022-10-26T06:09:08;14.20;92.60
3678;DHT22;1855;50.934;6.958;2022-10-26T06:11:35;14.20;92.40
3678;DHT22;1855;50.934;6.958;2022-10-26T06:14:03;14.20;92.40
3678;DHT22;1855;50.934;6.958;2022-10-26T06:16:37;14.20;92.50
3678;DHT22;1855;50.934;6.958;2022-10-26T06:19:14;14.20;92.50
3678;DHT22;1855;50.934;6.958;2022-10-26T06:21:53;14.20;92.50
3678;DHT22;1855;50.934;6.958;2022-10-26T06:24:31;14.20;92.70
3678;DHT22;1855;50.934;6.958;2022-10-26T06:27:09;14.10;92.80
3678;DHT22;1855;50.934;6.958;2022-10-26T06:29:44;14.10;92.90
3678;DHT22;1855;50.934;6.958;2022-10-26T06:32:15;14.10;93.00
3678;DHT22;1855;50.934;6.958;2022-10-26T06:34:45;14.10;93.10
3678;DHT22;1855;50.934;6.958;2022-10-26T06:37:13;14.10;93.20
3678;DHT22;1855;50.934;6.958;2022-10-26T06:39:44;14.00;93.40
3678;DHT22;1855;50.934;6.958;2022-10-26T06:42:12;14.10;93.80
3678;DHT22;1855;50.934;6.958;2022-10-26T06:44:39;14.00;93.90
3678;DHT22;1855;50.934;6.958;2022-10-26T06:47:09;14.10;94.00
3678;DHT22;1855;50.934;6.958;2022-10-26T06:49:41;14.00;94.50
3678;DHT22;1855;50.934;6.958;2022-10-26T06:52:17;13.90;95.00
3678;DHT22;1855;50.934;6.958;2022-10-26T06:54:49;13.90;95.50
3678;DHT22;1855;50.934;6.958;2022-10-26T06:57:18;13.80;96.00
3678;DHT22;1855;50.934;6.958;2022-10-26T06:59:48;13.70;96.10
3678;DHT22;1855;50.934;6.958;2022-10-26T07:02:15;13.70;96.80
3678;DHT22;1855;50.934;6.958;2022-10-26T07:04:43;13.60;96.80
3678;DHT22;1855;50.934;6.958;2022-10-26T07:07:11;13.60;96.90
3678;DHT22;1855;50.934;6.958;2022-10-26T07:09:39;13.60;97.10
3678;DHT22;1855;50.934;6.958;2022-10-26T07:12:07;13.60;97.30
3678;DHT22;1855;50.934;6.958;2022-10-26T07:14:34;13.50;97.50
3678;DHT22;1855;50.934;6.958;2022-10-26T07:17:03;13.50;97.30
3678;DHT22;1855;50.934;6.958;2022-10-26T07:19:30;13.60;97.20
3678;DHT22;1855;50.934;6.958;2022-10-26T07:21:57;13.50;97.30
3678;DHT22;1855;50.934;6.958;2022-10-26T07:24:24;13.60;97.20
3678;DHT22;1855;50.934;6.958;2022-10-26T07:26:52;13.60;97.10
3678;DHT22;1855;50.934;6.958;2022-10-26T07:29:21;13.60;97.10
3678;DHT22;1855;50.934;6.958;2022-10-26T07:31:48;13.60;97.40
3678;DHT22;1855;50.934;6.958;2022-10-26T07:34:14;13.70;97.20
3678;DHT22;1855;50.934;6.958;2022-10-26T07:36:41;13.70;97.00
3678;DHT22;1855;50.934;6.958;2022-10-26T07:39:08;13.70;97.20
3678;DHT22;1855;50.934;6.958;2022-10-26T07:41:35;13.70;97.50
3678;DHT22;1855;50.934;6.958;2022-10-26T07:44:02;13.70;97.10
3678;DHT22;1855;50.934;6.958;2022-10-26T07:46:30;13.80;97.00
3678;DHT22;1855;50.934;6.958;2022-10-26T07:48:57;13.80;97.00
3678;DHT22;1855;50.934;6.958;2022-10-26T07:51:23;13.80;96.60
3678;DHT22;1855;50.934;6.958;2022-10-26T07:53:50;13.80;96.60
3678;DHT22;1855;50.934;6.958;2022-10-26T07:56:17;13.80;96.50
3678;DHT22;1855;50.934;6.958;2022-10-26T07:58:44;13.90;96.30
3678;DHT22;1855;50.934;6.958;2022-10-26T08:01:13;14.00;96.00
3678;DHT22;1855;50.934;6.958;2022-10-26T08:03:42;14.10;96.10
3678;DHT22;1855;50.934;6.958;2022-10-26T08:06:09;14.30;95.50
3678;DHT22;1855;50.934;6.958;2022-10-26T08:08:36;14.50;94.40
3678;DHT22;1855;50.934;6.958;2022-10-26T08:11:04;14.70;93.40
3678;DHT22;1855;50.934;6.958;2022-10-26T08:13:31;14.80;93.50
3678;DHT22;1855;50.934;6.958;2022-10-26T08:16:01;15.00;92.80
3678;DHT22;1855;50.934;6.958;2022-10-26T08:18:28;15.20;91.80
3678;DHT22;1855;50.934;6.958;2022-10-26T08:21:00;15.30;91.90
3678;DHT22;1855;50.934;6.958;2022-10-26T08:23:28;15.40;91.60
3678;DHT22;1855;50.934;6.958;2022-10-26T08:25:57;15.50;91.20
3678;DHT22;1855;50.934;6.958;2022-10-26T08:28:24;15.70;90.70
3678;DHT22;1855;50.934;6.958;2022-10-26T08:30:51;15.90;90.10
3678;DHT22;1855;50.934;6.958;2022-10-26T08:33:17;16.10;88.70
3678;DHT22;1855;50.934;6.958;2022-10-26T08:35:44;16.30;87.70
3678;DHT22;1855;50.934;6.958;2022-10-26T08:38:12;16.50;86.70
3678;DHT22;1855;50.934;6.958;2022-10-26T08:40:40;16.50;85.70
3678;DHT22;1855;50.934;6.958;2022-10-26T08:43:12;16.60;85.50
3678;DHT22;1855;50.934;6.958;2022-10-26T08:45:46;16.70;85.00
3678;DHT22;1855;50.934;6.958;2022-10-26T08:48:16;16.80;84.80
3678;DHT22;1855;50.934;6.958;2022-10-26T08:50:48;16.70;85.30
3678;DHT22;1855;50.934;6.958;2022-10-26T08:53:21;16.70;83.90
3678;DHT22;1855;50.934;6.958;2022-10-26T08:55:52;16.70;84.40
3678;DHT22;1855;50.934;6.958;2022-10-26T08:58:24;16.60;83.80
3678;DHT22;1855;50.934;6.958;2022-10-26T09:00:51;16.60;83.60
3678;DHT22;1855;50.934;6.958;2022-10-26T09:03:18;16.50;83.60
3678;DHT22;1855;50.934;6.958;2022-10-26T09:08:53;16.40;84.10
3678;DHT22;1855;50.934;6.958;2022-10-26T09:11:39;16.40;84.00
3678;DHT22;1855;50.934;6.958;2022-10-26T09:14:18;16.30;84.00
3678;DHT22;1855;50.934;6.958;2022-10-26T09:16:56;16.30;84.50
3678;DHT22;1855;50.934;6.958;2022-10-26T09:19:47;16.30;84.40
3678;DHT22;1855;50.934;6.958;2022-10-26T09:22:22;16.30;84.10
3678;DHT22;1855;50.934;6.958;2022-10-26T09:24:54;16.30;84.60
3678;DHT22;1855;50.934;6.958;2022-10-26T09:27:25;16.40;84.20
3678;DHT22;1855;50.934;6.958;2022-10-26T09:29:54;16.70;84.00
3678;DHT22;1855;50.934;6.958;2022-10-26T09:32:25;17.10;83.10
3678;DHT22;1855;50.934;6.958;2022-10-26T09:34:58;17.50;80.00
3678;DHT22;1855;50.934;6.958;2022-10-26T09:37:30;17.80;79.00
3678;DHT22;1855;50.934;6.958;2022-10-26T09:40:06;18.00;78.80
3678;DHT22;1855;50.934;6.958;2022-10-26T09:42:39;18.30;76.30
3678;DHT22;1855;50.934;6.958;2022-10-26T09:45:14;18.70;75.60
3678;DHT22;1855;50.934;6.958;2022-10-26T09:47:45;19.10;74.20
3678;DHT22;1855;50.934;6.958;2022-10-26T09:50:17;19.40;72.40
3678;DHT22;1855;50.934;6.958;2022-10-26T09:52:46;19.70;71.00
3678;DHT22;1855;50.934;6.958;2022-10-26T09:55:14;19.90;70.60
3678;DHT22;1855;50.934;6.958;2022-10-26T09:57:42;20.20;69.40
3678;DHT22;1855;50.934;6.958;2022-10-26T10:00:14;20.30;68.20
3678;DHT22;1855;50.934;6.958;2022-10-26T10:02:43;20.50;67.80
3678;DHT22;1855;50.934;6.958;2022-10-26T10:05:31;20.70;67.10
3678;DHT22;1855;50.934;6.958;2022-10-26T10:08:10;20.90;66.00
3678;DHT22;1855;50.934;6.958;2022-10-26T10:10:38;21.20;65.50
3678;DHT22;1855;50.934;6.958;2022-10-26T10:13:20;21.40;65.00
3678;DHT22;1855;50.934;6.958;2022-10-26T10:15:51;21.70;63.70
3678;DHT22;1855;50.934;6.958;2022-10-26T10:18:19;21.60;64.10
3678;DHT22;1855;50.934;6.958;2022-10-26T10:20:53;21.60;64.00
3678;DHT22;1855;50.934;6.958;2022-10-26T10:23:26;21.90;62.70
3678;DHT22;1855;50.934;6.958;2022-10-26T10:26:00;22.00;62.10
3678;DHT22;1855;50.934;6.958;2022-10-26T10:28:28;22.30;61.50
3678;DHT22;1855;50.934;6.958;2022-10-26T10:30:56;22.50;61.70
3678;DHT22;1855;50.934;6.958;2022-10-26T10:33:36;22.50;61.10
3678;DHT22;1855;50.934;6.958;2022-10-26T10:36:06;22.60;60.90
3678;DHT22;1855;50.934;6.958;2022-10-26T10:38:37;22.70;60.30
3678;DHT22;1855;50.934;6.958;2022-10-26T10:41:14;22.70;59.80
3678;DHT22;1855;50.934;6.958;2022-10-26T10:43:44;23.00;58.70
3678;DHT22;1855;50.934;6.958;2022-10-26T10:46:17;23.10;59.00
3678;DHT22;1855;50.934;6.958;2022-10-26T10:48:51;23.20;58.70
3678;DHT22;1855;50.934;6.958;2022-10-26T10:51:22;23.40;57.60
3678;DHT22;1855;50.934;6.958;2022-10-26T10:53:50;23.40;57.90
3678;DHT22;1855;50.934;6.958;2022-10-26T10:56:31;23.50;57.20
3678;DHT22;1855;50.934;6.958;2022-10-26T10:59:25;23.60;57.50
3678;DHT22;1855;50.934;6.958;2022-10-26T11:02:09;23.90;58.00
3678;DHT22;1855;50.934;6.958;2022-10-26T11:05:00;24.00;56.90
3678;DHT22;1855;50.934;6.958;2022-10-26T11:07:32;24.10;56.90
3678;DHT22;1855;50.934;6.958;2022-10-26T11:10:02;24.20;57.30
3678;DHT22;1855;50.934;6.958;2022-10-26T11:12:33;24.40;55.50
3678;DHT22;1855;50.934;6.958;2022-10-26T11:15:05;24.50;54.90
3678;DHT22;1855;50.934;6.958;2022-10-26T11:17:37;24.20;55.40
3678;DHT22;1855;50.934;6.958;2022-10-26T11:20:12;24.10;56.40
3678;DHT22;1855;50.934;6.958;2022-10-26T11:22:44;23.90;56.70
3678;DHT22;1855;50.934;6.958;2022-10-26T11:25:15;23.80;56.90
3678;DHT22;1855;50.934;6.958;2022-10-26T11:27:47;23.90;57.10
3678;DHT22;1855;50.934;6.958;2022-10-26T11:30:18;24.00;56.20
3678;DHT22;1855;50.934;6.958;2022-10-26T11:32:50;23.90;57.20
3678;DHT22;1855;50.934;6.958;2022-10-26T11:35:21;23.70;56.70
3678;DHT22;1855;50.934;6.958;2022-10-26T11:37:54;23.70;54.80
3678;DHT22;1855;50.934;6.958;2022-10-26T11:40:27;23.80;54.40
3678;DHT22;1855;50.934;6.958;2022-10-26T11:43:04;23.90;53.70
3678;DHT22;1855;50.934;6.958;2022-10-26T11:45:35;23.80;53.70
3678;DHT22;1855;50.934;6.958;2022-10-26T11:48:10;23.90;54.40
3678;DHT22;1855;50.934;6.958;2022-10-26T11:50:40;24.00;52.90
3678;DHT22;1855;50.934;6.958;2022-10-26T11:53:11;24.00;53.40
3678;DHT22;1855;50.934;6.958;2022-10-26T11:55:40;24.40;53.60
3678;DHT22;1855;50.934;6.958;2022-10-26T11:58:09;24.70;52.30
3678;DHT22;1855;50.934;6.958;2022-10-26T12:00:43;25.00;50.40
3678;DHT22;1855;50.934;6.958;2022-10-26T12:03:15;25.20;51.40
3678;DHT22;1855;50.934;6.958;2022-10-26T12:05:47;25.60;49.30
3678;DHT22;1855;50.934;6.958;2022-10-26T12:08:20;25.10;49.40
3678;DHT22;1855;50.934;6.958;2022-10-26T12:10:52;24.80;50.60
3678;DHT22;1855;50.934;6.958;2022-10-26T12:13:25;24.70;52.20
3678;DHT22;1855;50.934;6.958;2022-10-26T12:15:59;24.90;51.70
3678;DHT22;1855;50.934;6.958;2022-10-26T12:18:33;24.80;51.70
3678;DHT22;1855;50.934;6.958;2022-10-26T12:21:04;24.60;51.00
3678;DHT22;1855;50.934;6.958;2022-10-26T12:23:34;24.60;51.30
3678;DHT22;1855;50.934;6.958;2022-10-26T12:29:30;24.60;51.70
3678;DHT22;1855;50.934;6.958;2022-10-26T12:32:00;24.50;50.50
3678;DHT22;1855;50.934;6.958;2022-10-26T12:35:00;24.30;51.30
3678;DHT22;1855;50.934;6.958;2022-10-26T12:37:35;24.10;51.70
3678;DHT22;1855;50.934;6.958;2022-10-26T12:40:37;23.50;52.80
3678;DHT22;1855;50.934;6.958;2022-10-26T12:43:34;23.30;54.30
3678;DHT22;1855;50.934;6.958;2022-10-26T12:52:38;23.50;54.80
3678;DHT22;1855;50.934;6.958;2022-10-26T13:01:32;24.40;52.10
3678;DHT22;1855;50.934;6.958;2022-10-26T13:04:12;24.30;52.20
3678;DHT22;1855;50.934;6.958;2022-10-26T13:06:51;24.40;52.10
3678;DHT22;1855;50.934;6.958;2022-10-26T13:09:24;24.50;52.50
3678;DHT22;1855;50.934;6.958;2022-10-26T13:11:54;24.40;52.00
3678;DHT22;1855;50.934;6.958;2022-10-26T13:14:25;24.40;51.50
3678;DHT22;1855;50.934;6.958;2022-10-26T13:16:55;24.60;50.60
3678;DHT22;1855;50.934;6.958;2022-10-26T13:19:23;24.60;48.30
3678;DHT22;1855;50.934;6.958;2022-10-26T13:21:51;24.40;48.50
3678;DHT22;1855;50.934;6.958;2022-10-26T13:24:22;24.30;48.40
3678;DHT22;1855;50.934;6.958;2022-10-26T13:27:21;24.20;49.10
3678;DHT22;1855;50.934;6.958;2022-10-26T13:30:20;24.00;48.50
3678;DHT22;1855;50.934;6.958;2022-10-26T13:33:01;23.60;49.20
3678;DHT22;1855;50.934;6.958;2022-10-26T13:35:30;23.40;50.70
3678;DHT22;1855;50.934;6.958;2022-10-26T13:38:10;23.20;51.30
3678;DHT22;1855;50.934;6.958;2022-10-26T13:40:39;23.40;50.80
3678;DHT22;1855;50.934;6.958;2022-10-26T13:43:13;23.50;50.20
3678;DHT22;1855;50.934;6.958;2022-10-26T13:45:48;23.60;48.80
3678;DHT22;1855;50.934;6.958;2022-10-26T13:48:18;23.50;49.50
3678;DHT22;1855;50.934;6.958;2022-10-26T13:50:51;23.50;48.80
3678;DHT22;1855;50.934;6.958;2022-10-26T13:53:21;23.50;49.30
3678;DHT22;1855;50.934;6.958;2022-10-26T13:55:53;23.60;48.40
3678;DHT22;1855;50.934;6.958;2022-10-26T13:58:26;23.70;47.80
3678;DHT22;1855;50.934;6.958;2022-10-26T14:01:00;23.60;47.60
3678;DHT22;1855;50.934;6.958;2022-10-26T14:03:27;23.70;47.60
3678;DHT22;1855;50.934;6.958;2022-10-26T14:05:55;23.70;47.60
3678;DHT22;1855;50.934;6.958;2022-10-26T14:08:22;23.80;47.50
3678;DHT22;1855;50.934;6.958;2022-10-26T14:10:54;23.70;47.70
3678;DHT22;1855;50.934;6.958;2022-10-26T14:13:23;23.50;47.30
3678;DHT22;1855;50.934;6.958;2022-10-26T14:15:51;23.40;48.40
3678;DHT22;1855;50.934;6.958;2022-10-26T14:18:21;23.40;48.50
3678;DHT22;1855;50.934;6.958;2022-10-26T14:20:54;23.50;48.60
3678;DHT22;1855;50.934;6.958;2022-10-26T14:23:26;23.50;48.20
3678;DHT22;1855;50.934;6.958;2022-10-26T14:25:54;23.50;47.00
3678;DHT22;1855;50.934;6.958;2022-10-26T14:28:23;23.40;47.10
3678;DHT22;1855;50.934;6.958;2022-10-26T14:30:50;23.20;48.20
3678;DHT22;1855;50.934;6.958;2022-10-26T14:33:18;23.10;47.50
3678;DHT22;1855;50.934;6.958;2022-10-26T14:35:46;23.00;48.40
3678;DHT22;1855;50.934;6.958;2022-10-26T14:38:17;23.00;48.30
3678;DHT22;1855;50.934;6.958;2022-10-26T14:40:45;22.90;48.50
3678;DHT22;1855;50.934;6.958;2022-10-26T14:43:17;22.80;49.00
3678;DHT22;1855;50.934;6.958;2022-10-26T14:45:47;22.70;48.90
3678;DHT22;1855;50.934;6.958;2022-10-26T14:48:23;22.60;49.60
3678;DHT22;1855;50.934;6.958;2022-10-26T14:50:57;22.50;49.50
3678;DHT22;1855;50.934;6.958;2022-10-26T14:53:29;22.40;49.90
3678;DHT22;1855;50.934;6.958;2022-10-26T14:55:57;22.30;49.90
3678;DHT22;1855;50.934;6.958;2022-10-26T14:58:28;22.30;50.40
3678;DHT22;1855;50.934;6.958;2022-10-26T15:01:23;22.20;50.90
3678;DHT22;1855;50.934;6.958;2022-10-26T15:03:53;22.10;50.80
3678;DHT22;1855;50.934;6.958;2022-10-26T15:06:21;22.10;50.80
3678;DHT22;1855;50.934;6.958;2022-10-26T15:08:54;22.10;51.60
3678;DHT22;1855;50.934;6.958;2022-10-26T15:11:21;22.10;50.40
3678;DHT22;1855;50.934;6.958;2022-10-26T15:13:49;21.90;51.50
3678;DHT22;1855;50.934;6.958;2022-10-26T15:16:17;21.90;51.60
3678;DHT22;1855;50.934;6.958;2022-10-26T15:18:47;21.90;52.00
3678;DHT22;1855;50.934;6.958;2022-10-26T15:21:21;21.90;52.00
3678;DHT22;1855;50.934;6.958;2022-10-26T15:23:49;21.90;52.40
3678;DHT22;1855;50.934;6.958;2022-10-26T15:26:16;21.80;52.60
3678;DHT22;1855;50.934;6.958;2022-10-26T15:28:43;21.80;52.70
3678;DHT22;1855;50.934;6.958;2022-10-26T15:31:28;21.80;52.00
3678;DHT22;1855;50.934;6.958;2022-10-26T15:34:11;21.80;52.50
3678;DHT22;1855;50.934;6.958;2022-10-26T15:36:40;21.70;53.00
3678;DHT22;1855;50.934;6.958;2022-10-26T15:39:07;21.80;53.00
3678;DHT22;1855;50.934;6.958;2022-10-26T15:41:35;21.70;53.20
3678;DHT22;1855;50.934;6.958;2022-10-26T15:44:04;21.60;53.20
3678;DHT22;1855;50.934;6.958;2022-10-26T15:46:35;21.60;53.50
3678;DHT22;1855;50.934;6.958;2022-10-26T15:49:04;21.50;53.70
3678;DHT22;1855;50.934;6.958;2022-10-26T15:51:32;21.40;52.80
3678;DHT22;1855;50.934;6.958;2022-10-26T15:54:02;21.30;53.50
3678;DHT22;1855;50.934;6.958;2022-10-26T15:56:29;21.30;52.90
3678;DHT22;1855;50.934;6.958;2022-10-26T15:58:57;21.20;53.30
3678;DHT22;1855;50.934;6.958;2022-10-26T16:01:26;21.10;53.90
3678;DHT22;1855;50.934;6.958;2022-10-26T16:03:54;21.00;54.20
3678;DHT22;1855;50.934;6.958;2022-10-26T16:06:25;20.90;55.00
3678;DHT22;1855;50.934;6.958;2022-10-26T16:08:55;20.80;54.40
3678;DHT22;1855;50.934;6.958;2022-10-26T16:11:23;20.80;55.00
3678;DHT22;1855;50.934;6.958;2022-10-26T16:13:49;20.70;55.50
3678;DHT22;1855;50.934;6.958;2022-10-26T16:16:18;20.50;56.60
3678;DHT22;1855;50.934;6.958;2022-10-26T16:18:45;20.40;57.40
3678;DHT22;1855;50.934;6.958;2022-10-26T16:21:16;20.40;56.10
3678;DHT22;1855;50.934;6.958;2022-10-26T16:23:45;20.40;56.40
3678;DHT22;1855;50.934;6.958;2022-10-26T16:26:12;20.30;56.80
3678;DHT22;1855;50.934;6.958;2022-10-26T16:28:39;20.20;57.40
3678;DHT22;1855;50.934;6.958;2022-10-26T16:31:07;20.10;58.00
3678;DHT22;1855;50.934;6.958;2022-10-26T16:33:34;20.10;58.20
3678;DHT22;1855;50.934;6.958;2022-10-26T16:36:02;20.00;59.00
3678;DHT22;1855;50.934;6.958;2022-10-26T16:38:31;19.80;59.80
3678;DHT22;1855;50.934;6.958;2022-10-26T16:41:01;19.80;60.10
3678;DHT22;1855;50.934;6.958;2022-10-26T16:43:30;19.70;60.00
3678;DHT22;1855;50.934;6.958;2022-10-26T16:45:58;19.60;60.10
3678;DHT22;1855;50.934;6.958;2022-10-26T16:48:24;19.60;60.20
3678;DHT22;1855;50.934;6.958;2022-10-26T16:50:51;19.50;61.40